createdAt,value
2022-08-26T00:01:19.034Z,69.68
2022-08-26T00:03:55.410Z,69.50
2022-08-26T00:06:21.995Z,70.01
2022-08-26T00:08:48.927Z,69.92
2022-08-26T00:11:15.258Z,70.06
2022-08-26T00:13:52.893Z,70.06
2022-08-26T00:16:19.732Z,70.53
2022-08-26T00:18:46.369Z,70.22
2022-08-26T00:21:12.720Z,70.55
2022-08-26T00:23:39.440Z,70.91
2022-08-26T00:26:06.682Z,70.78
2022-08-26T00:28:35.382Z,70.86
2022-08-26T00:31:01.883Z,70.41
2022-08-26T00:33:28.357Z,70.45
2022-08-26T00:35:54.936Z,70.65
2022-08-26T00:38:22.255Z,70.60
2022-08-26T00:40:53.743Z,70.56
2022-08-26T00:43:21.783Z,70.73
2022-08-26T00:46:14.010Z,71.06
2022-08-26T00:48:43.826Z,70.91
2022-08-26T00:51:21.331Z,70.82
2022-08-26T00:53:53.589Z,71.62
2022-08-26T00:56:29.203Z,72.05
2022-08-26T00:58:58.700Z,71.64
2022-08-26T01:01:25.422Z,72.35
2022-08-26T01:03:52.392Z,72.21
2022-08-26T01:06:19.542Z,72.47
2022-08-26T01:08:45.916Z,72.49
2022-08-26T01:11:12.651Z,72.78
2022-08-26T01:13:39.973Z,72.56
2022-08-26T01:16:13.197Z,71.57
2022-08-26T01:18:41.597Z,71.84
2022-08-26T01:21:31.143Z,72.47
2022-08-26T01:23:58.378Z,72.74
2022-08-26T01:26:29.676Z,72.96
2022-08-26T01:28:58.893Z,73.41
2022-08-26T01:31:29.351Z,72.97
2022-08-26T01:34:10.317Z,72.93
2022-08-26T01:36:38.245Z,72.96
2022-08-26T01:39:06.012Z,73.35
2022-08-26T01:41:34.913Z,73.61
2022-08-26T01:44:03.145Z,73.61
2022-08-26T01:46:30.436Z,73.62
2022-08-26T01:49:00.398Z,73.31
2022-08-26T01:51:27.788Z,73.46
2022-08-26T01:53:54.963Z,73.50
2022-08-26T01:56:23.827Z,73.33
2022-08-26T01:59:02.617Z,73.79
2022-08-26T02:01:29.410Z,73.45
2022-08-26T02:04:09.952Z,73.08
2022-08-26T02:06:38.468Z,73.70
2022-08-26T02:09:06.633Z,74.29
2022-08-26T02:11:33.903Z,73.91
2022-08-26T02:14:09.804Z,74.30
2022-08-26T02:16:39.868Z,74.84
2022-08-26T02:19:17.029Z,74.95
2022-08-26T02:21:45.500Z,75.54
2022-08-26T02:24:19.264Z,74.45
2022-08-26T02:26:46.889Z,74.95
2022-08-26T02:29:24.102Z,74.99
2022-08-26T02:31:51.439Z,75.57
2022-08-26T02:34:26.183Z,76.40
2022-08-26T02:37:02.366Z,75.36
2022-08-26T02:39:31.041Z,75.35
2022-08-26T02:41:58.392Z,75.39
2022-08-26T02:44:25.531Z,75.73
2022-08-26T02:46:52.355Z,76.10
2022-08-26T02:49:21.621Z,76.40
2022-08-26T02:51:48.182Z,76.47
2022-08-26T02:54:14.528Z,75.67
2022-08-26T02:56:41.107Z,75.31
2022-08-26T02:59:08.235Z,75.03
2022-08-26T03:01:36.254Z,75.65
2022-08-26T03:04:04.674Z,76.23
2022-08-26T03:06:32.163Z,76.49
2022-08-26T03:08:59.154Z,76.53
2022-08-26T03:11:29.621Z,76.56
2022-08-26T03:13:59.529Z,77.33
2022-08-26T03:16:32.351Z,77.67
2022-08-26T03:19:00.333Z,77.79
2022-08-26T03:21:26.710Z,77.83
2022-08-26T03:23:53.404Z,77.81
2022-08-26T03:26:19.909Z,77.64
2022-08-26T03:28:46.514Z,77.66
2022-08-26T03:31:12.932Z,77.76
2022-08-26T03:33:39.490Z,77.96
2022-08-26T03:36:06.083Z,78.05
2022-08-26T03:38:32.469Z,78.13
2022-08-26T03:40:58.825Z,78.05
2022-08-26T03:43:25.218Z,77.67
2022-08-26T03:45:51.822Z,77.90
2022-08-26T03:48:19.005Z,77.33
2022-08-26T03:50:45.417Z,77.18
2022-08-26T03:53:15.135Z,77.16
2022-08-26T03:55:41.632Z,77.51
2022-08-26T03:58:08.057Z,78.24
2022-08-26T04:00:34.515Z,78.28
2022-08-26T04:03:02.564Z,78.02
2022-08-26T04:05:29.073Z,78.02
2022-08-26T04:07:55.821Z,77.75
2022-08-26T04:10:29.139Z,78.09
2022-08-26T04:12:58.884Z,78.25
2022-08-26T04:15:26.326Z,78.15
2022-08-26T04:17:53.051Z,78.31
2022-08-26T04:20:19.513Z,78.46
2022-08-26T04:22:46.137Z,78.00
2022-08-26T04:25:12.881Z,77.78
2022-08-26T04:27:39.253Z,77.90
2022-08-26T04:30:08.142Z,78.16
2022-08-26T04:32:35.265Z,78.31
2022-08-26T04:35:01.892Z,78.51
2022-08-26T04:37:28.307Z,78.75
2022-08-26T04:39:54.813Z,78.32
2022-08-26T04:42:23.303Z,78.85
2022-08-26T04:44:52.593Z,79.56
2022-08-26T04:47:19.013Z,79.95
2022-08-26T04:49:45.477Z,80.34
2022-08-26T04:52:11.859Z,79.89
2022-08-26T04:54:39.001Z,79.69
2022-08-26T04:57:08.462Z,79.24
2022-08-26T04:59:38.597Z,79.09
2022-08-26T05:02:06.410Z,79.24
2022-08-26T05:04:33.377Z,80.08
2022-08-26T05:07:02.299Z,80.21
2022-08-26T05:09:29.344Z,79.87
2022-08-26T05:11:57.058Z,78.70
2022-08-26T05:14:23.508Z,78.18
2022-08-26T05:16:50.128Z,78.30
2022-08-26T05:19:18.985Z,78.34
2022-08-26T05:21:47.254Z,78.55
2022-08-26T05:24:14.256Z,78.68
2022-08-26T05:26:40.852Z,77.82
2022-08-26T05:29:07.558Z,76.58
2022-08-26T05:31:34.713Z,76.64
2022-08-26T05:34:03.701Z,76.44
2022-08-26T05:36:32.269Z,76.44
2022-08-26T05:38:58.942Z,76.68
2022-08-26T05:41:36.295Z,77.42
2022-08-26T05:44:06.306Z,77.00
2022-08-26T05:46:33.808Z,76.66
2022-08-26T05:49:01.128Z,76.84
2022-08-26T05:51:27.518Z,76.75
2022-08-26T05:53:57.047Z,76.26
2022-08-26T05:56:25.888Z,74.46
2022-08-26T05:58:52.290Z,74.09
2022-08-26T06:01:21.622Z,74.88
2022-08-26T06:03:52.141Z,73.85
2022-08-26T06:06:27.246Z,72.40
2022-08-26T06:08:55.159Z,70.94
2022-08-26T06:11:24.079Z,68.87
2022-08-26T06:13:57.964Z,67.63
2022-08-26T06:16:28.162Z,65.09
2022-08-26T06:18:54.908Z,63.87
2022-08-26T06:21:28.166Z,62.08
2022-08-26T06:23:58.492Z,60.96
2022-08-26T06:26:25.485Z,60.24
2022-08-26T06:28:51.842Z,59.55
2022-08-26T06:31:18.682Z,58.53
2022-08-26T06:33:45.146Z,58.07
2022-08-26T06:36:20.703Z,58.45
2022-08-26T06:38:48.445Z,59.38
2022-08-26T06:41:16.435Z,60.57
2022-08-26T06:43:42.817Z,61.34
2022-08-26T06:46:12.070Z,60.94
2022-08-26T06:48:39.246Z,61.46
2022-08-26T06:51:15.130Z,62.35
2022-08-26T06:53:43.704Z,62.19
2022-08-26T06:56:11.239Z,62.78
2022-08-26T06:58:39.938Z,62.69
2022-08-26T07:01:16.209Z,62.27
2022-08-26T07:03:45.368Z,61.87
2022-08-26T07:06:13.361Z,62.17
2022-08-26T07:08:39.983Z,62.04
2022-08-26T07:11:09.319Z,62.69
2022-08-26T07:13:36.305Z,61.50
2022-08-26T07:16:07.021Z,61.79
2022-08-26T07:18:36.813Z,61.67
2022-08-26T07:21:08.498Z,62.04
2022-08-26T07:23:35.153Z,62.18
2022-08-26T07:26:13.565Z,62.70
2022-08-26T07:28:40.575Z,62.65
2022-08-26T07:31:09.644Z,62.58
2022-08-26T07:33:37.638Z,62.52
2022-08-26T07:36:07.229Z,62.16
2022-08-26T07:38:34.646Z,61.42
2022-08-26T07:41:01.056Z,60.18
2022-08-26T07:43:29.346Z,59.59
2022-08-26T07:45:55.977Z,58.52
2022-08-26T07:48:22.456Z,58.01
2022-08-26T07:50:50.586Z,56.44
2022-08-26T07:53:18.146Z,55.69
2022-08-26T07:55:46.274Z,54.92
2022-08-26T07:58:12.734Z,54.04
2022-08-26T08:00:39.141Z,54.06
2022-08-26T08:03:06.178Z,53.57
2022-08-26T08:05:33.769Z,53.59
2022-08-26T08:08:27.263Z,52.75
2022-08-26T08:10:49.482Z,52.05
2022-08-26T08:13:16.013Z,51.22
2022-08-26T08:15:42.557Z,51.06
2022-08-26T08:18:14.043Z,51.33
2022-08-26T08:20:47.629Z,51.79
2022-08-26T08:23:21.089Z,52.71
2022-08-26T08:25:48.071Z,51.68
2022-08-26T08:28:15.069Z,52.28
2022-08-26T08:30:42.023Z,52.65
2022-08-26T08:33:08.971Z,52.04
2022-08-26T08:35:37.116Z,53.39
2022-08-26T08:38:07.036Z,53.46
2022-08-26T08:40:33.604Z,52.61
2022-08-26T08:43:09.466Z,53.34
2022-08-26T08:45:47.245Z,52.63
2022-08-26T08:48:28.042Z,52.02
2022-08-26T08:51:03.915Z,52.08
2022-08-26T08:53:38.318Z,52.09
2022-08-26T08:56:37.274Z,53.12
2022-08-26T08:59:15.172Z,53.47
2022-08-26T09:01:41.573Z,53.67
2022-08-26T09:04:27.894Z,53.38
2022-08-26T09:09:38.248Z,52.61
2022-08-26T09:12:11.164Z,52.24
2022-08-26T09:14:37.549Z,51.78
2022-08-26T09:17:17.599Z,51.95
2022-08-26T09:19:52.120Z,52.54
2022-08-26T09:22:37.074Z,51.65
2022-08-26T09:25:11.228Z,51.08
2022-08-26T09:27:40.545Z,51.26
2022-08-26T09:30:08.288Z,51.05
2022-08-26T09:32:38.780Z,50.53
2022-08-26T09:35:24.079Z,51.17
2022-08-26T09:40:27.092Z,49.23
2022-08-26T09:43:10.910Z,48.15
2022-08-26T09:45:39.169Z,47.47
2022-08-26T09:48:06.543Z,46.48
2022-08-26T09:50:49.190Z,45.58
2022-08-26T09:53:17.677Z,47.16
2022-08-26T09:55:51.403Z,46.42
2022-08-26T09:58:37.828Z,45.92
2022-08-26T10:01:14.668Z,45.66
2022-08-26T10:03:42.838Z,45.59
2022-08-26T10:06:18.194Z,47.13
2022-08-26T10:08:58.592Z,47.51
2022-08-26T10:11:37.868Z,46.68
2022-08-26T10:14:14.037Z,49.58
2022-08-26T10:16:41.470Z,49.44
2022-08-26T10:19:16.621Z,51.22
2022-08-26T10:22:05.739Z,49.80
2022-08-26T10:24:42.792Z,51.09
2022-08-26T10:27:21.530Z,51.82
2022-08-26T10:29:51.689Z,50.71
2022-08-26T10:32:25.930Z,50.73
2022-08-26T10:34:54.313Z,50.32
2022-08-26T10:37:26.994Z,49.26
2022-08-26T10:40:02.474Z,49.67
2022-08-26T10:42:38.554Z,47.70
2022-08-26T10:45:11.902Z,46.72
2022-08-26T10:47:58.465Z,46.01
2022-08-26T10:50:30.950Z,46.52
2022-08-26T10:53:32.906Z,47.70
2022-08-26T10:56:15.751Z,48.59
2022-08-26T10:59:06.397Z,48.47
2022-08-26T11:01:50.851Z,49.76
2022-08-26T11:04:34.870Z,50.00
2022-08-26T11:07:37.459Z,49.80
2022-08-26T11:10:08.637Z,49.74
2022-08-26T11:12:35.113Z,50.42
2022-08-26T11:15:09.991Z,51.95
2022-08-26T11:17:45.458Z,51.93
2022-08-26T11:20:30.122Z,50.98
2022-08-26T11:23:35.383Z,50.61
2022-08-26T11:26:07.777Z,50.34
2022-08-26T11:28:49.925Z,49.31
2022-08-26T11:31:19.364Z,48.70
2022-08-26T11:33:51.192Z,49.46
2022-08-26T11:36:45.563Z,50.60
2022-08-26T11:39:29.284Z,51.27
2022-08-26T11:42:01.374Z,51.58
2022-08-26T11:44:38.777Z,51.37
2022-08-26T11:47:07.784Z,51.55
2022-08-26T11:49:38.032Z,51.47
2022-08-26T11:52:22.510Z,52.13
2022-08-26T11:55:06.581Z,51.83
2022-08-26T11:57:34.932Z,51.92
2022-08-26T12:00:02.362Z,51.39
2022-08-26T12:02:28.916Z,50.61
2022-08-26T12:04:56.740Z,50.83
2022-08-26T12:07:27.153Z,50.71
2022-08-26T12:09:58.709Z,51.77
2022-08-26T12:12:34.688Z,53.07
2022-08-26T12:15:20.477Z,52.29
2022-08-26T12:17:53.419Z,51.86
2022-08-26T12:20:40.900Z,51.42
2022-08-26T12:23:07.357Z,51.01
2022-08-26T12:25:35.954Z,53.13
2022-08-26T12:28:05.508Z,51.81
2022-08-26T12:30:31.969Z,50.77
2022-08-26T12:33:22.957Z,51.21
2022-08-26T12:35:54.393Z,51.66
2022-08-26T12:38:23.840Z,50.84
2022-08-26T12:40:50.340Z,50.62
2022-08-26T12:43:38.766Z,50.40
2022-08-26T12:46:06.746Z,49.74
2022-08-26T12:48:36.489Z,49.81
2022-08-26T12:51:06.011Z,50.73
2022-08-26T12:53:35.456Z,50.19
2022-08-26T12:56:17.133Z,50.76
2022-08-26T12:58:43.896Z,50.68
2022-08-26T13:01:10.328Z,50.01
2022-08-26T13:03:36.737Z,49.12
2022-08-26T13:06:15.926Z,50.92
2022-08-26T13:08:45.415Z,51.86
2022-08-26T13:11:19.109Z,51.52
2022-08-26T13:13:50.054Z,52.18
2022-08-26T13:16:16.481Z,52.21
2022-08-26T13:18:42.902Z,52.71
2022-08-26T13:21:28.212Z,52.38
2022-08-26T13:24:09.707Z,52.37
2022-08-26T13:26:36.107Z,51.98
2022-08-26T13:29:04.520Z,52.31
2022-08-26T13:31:33.809Z,51.86
2022-08-26T13:34:02.252Z,52.58
2022-08-26T13:36:29.134Z,52.39
2022-08-26T13:38:55.568Z,51.63
2022-08-26T13:41:29.084Z,51.85
2022-08-26T13:43:56.534Z,51.27
2022-08-26T13:46:25.905Z,50.71
2022-08-26T13:48:52.342Z,50.56
2022-08-26T13:51:18.855Z,51.32
2022-08-26T13:53:45.192Z,51.95
2022-08-26T13:56:11.830Z,51.84
2022-08-26T13:58:38.390Z,53.30
2022-08-26T14:01:04.777Z,53.00
2022-08-26T14:03:31.225Z,52.71
2022-08-26T14:05:57.608Z,52.64
2022-08-26T14:08:24.192Z,52.03
2022-08-26T14:10:50.650Z,51.84
2022-08-26T14:13:17.134Z,51.09
2022-08-26T14:15:43.536Z,50.49
2022-08-26T14:18:13.545Z,49.63
2022-08-26T14:20:48.440Z,49.32
2022-08-26T14:23:14.926Z,48.63
2022-08-26T14:25:41.735Z,48.52
2022-08-26T14:28:08.109Z,48.16
2022-08-26T14:30:34.936Z,46.59
2022-08-26T14:33:01.316Z,46.11
2022-08-26T14:35:30.241Z,47.33
2022-08-26T14:37:57.141Z,49.23
2022-08-26T14:40:31.096Z,49.37
2022-08-26T14:42:59.203Z,48.66
2022-08-26T14:45:27.448Z,49.01
2022-08-26T14:47:55.195Z,48.84
2022-08-26T14:50:23.351Z,48.92
2022-08-26T14:52:50.828Z,49.36
2022-08-26T14:55:17.205Z,49.32
2022-08-26T14:57:43.534Z,48.25
2022-08-26T15:00:10.450Z,48.72
2022-08-26T15:02:36.856Z,49.38
2022-08-26T15:05:03.463Z,49.99
2022-08-26T15:07:29.835Z,51.57
2022-08-26T15:09:56.169Z,52.62
2022-08-26T15:12:22.510Z,54.43
2022-08-26T15:14:48.839Z,52.65
2022-08-26T15:17:15.255Z,54.90
2022-08-26T15:19:41.585Z,55.40
2022-08-26T15:22:07.919Z,52.31
2022-08-26T15:24:34.789Z,51.92
2022-08-26T15:27:01.144Z,54.20
2022-08-26T15:29:27.486Z,54.46
2022-08-26T15:31:55.274Z,53.94
2022-08-26T15:34:23.783Z,52.58
2022-08-26T15:36:50.106Z,49.45
2022-08-26T15:39:17.187Z,48.18
2022-08-26T15:41:43.622Z,45.20
2022-08-26T15:44:11.282Z,44.28
2022-08-26T15:46:38.721Z,45.92
2022-08-26T15:49:05.685Z,47.39
2022-08-26T15:51:35.102Z,53.89
2022-08-26T15:54:11.831Z,58.94
2022-08-26T15:56:38.490Z,59.26
2022-08-26T15:59:06.615Z,63.31
2022-08-26T16:01:33.548Z,68.76
2022-08-26T16:04:00.995Z,79.47
2022-08-26T16:06:31.427Z,82.66
2022-08-26T16:08:58.188Z,83.66
2022-08-26T16:11:25.479Z,85.26
2022-08-26T16:13:52.308Z,84.95
2022-08-26T16:16:18.852Z,85.54
2022-08-26T16:18:45.583Z,84.71
2022-08-26T16:21:20.515Z,83.96
2022-08-26T16:23:47.628Z,85.13
2022-08-26T16:26:19.955Z,82.21
2022-08-26T16:28:47.060Z,80.12
2022-08-26T16:31:13.845Z,78.31
2022-08-26T16:33:40.363Z,77.73
2022-08-26T16:36:08.346Z,78.10
2022-08-26T16:38:36.306Z,78.28
2022-08-26T16:41:03.389Z,76.41
2022-08-26T16:43:29.735Z,75.70
2022-08-26T16:45:56.939Z,75.93
2022-08-26T16:48:23.404Z,76.13
2022-08-26T16:50:50.525Z,76.52
2022-08-26T16:53:16.989Z,75.46
2022-08-26T16:55:47.997Z,75.68
2022-08-26T16:58:14.689Z,76.31
2022-08-26T17:00:41.095Z,76.64
2022-08-26T17:03:07.653Z,78.01
2022-08-26T17:05:34.169Z,76.81
2022-08-26T17:08:00.952Z,76.46
2022-08-26T17:10:28.728Z,73.37
2022-08-26T17:12:55.357Z,73.96
2022-08-26T17:15:21.864Z,73.89
2022-08-26T17:17:48.186Z,71.37
2022-08-26T17:20:16.541Z,69.96
2022-08-26T17:22:46.526Z,69.17
2022-08-26T17:25:16.534Z,69.67
2022-08-26T17:27:43.012Z,67.92
2022-08-26T17:30:10.374Z,69.62
2022-08-26T17:32:36.852Z,69.28
2022-08-26T17:35:04.739Z,68.83
2022-08-26T17:37:31.229Z,70.91
2022-08-26T17:39:57.709Z,71.43
2022-08-26T17:42:31.616Z,71.64
2022-08-26T17:44:58.474Z,69.99
2022-08-26T17:47:24.823Z,70.89
2022-08-26T17:49:51.317Z,70.68
2022-08-26T17:52:17.660Z,71.30
2022-08-26T17:54:44.010Z,72.64
2022-08-26T17:57:10.705Z,73.62
2022-08-26T17:59:37.327Z,74.35
2022-08-26T18:02:07.256Z,73.75
2022-08-26T18:04:33.595Z,74.15
2022-08-26T18:07:00.078Z,74.55
2022-08-26T18:09:26.499Z,74.09
2022-08-26T18:11:52.826Z,74.46
2022-08-26T18:14:19.203Z,75.49
2022-08-26T18:16:45.538Z,74.78
2022-08-26T18:19:11.909Z,74.25
2022-08-26T18:21:38.262Z,74.91
2022-08-26T18:24:04.966Z,75.14
2022-08-26T18:26:35.654Z,75.16
2022-08-26T18:29:02.881Z,74.91
2022-08-26T18:31:30.001Z,75.71
2022-08-26T18:33:58.503Z,76.15
2022-08-26T18:36:28.611Z,76.18
2022-08-26T18:38:55.943Z,75.69
2022-08-26T18:41:24.725Z,75.75
2022-08-26T18:43:52.528Z,75.42
2022-08-26T18:46:20.446Z,75.29
2022-08-26T18:48:51.010Z,75.81
2022-08-26T18:51:20.796Z,75.68
2022-08-26T18:53:47.182Z,75.66
2022-08-26T18:56:16.621Z,76.10
2022-08-26T18:58:45.494Z,75.76
2022-08-26T19:01:13.261Z,76.13
2022-08-26T19:03:40.046Z,75.73
2022-08-26T19:06:06.829Z,75.93
2022-08-26T19:08:33.187Z,76.34
2022-08-26T19:11:00.242Z,76.44
2022-08-26T19:13:26.691Z,76.25
2022-08-26T19:15:53.032Z,75.63
2022-08-26T19:18:19.383Z,75.74
2022-08-26T19:20:46.907Z,74.95
2022-08-26T19:23:30.823Z,74.98
2022-08-26T19:25:58.322Z,74.82
2022-08-26T19:28:24.750Z,75.44
2022-08-26T19:30:53.109Z,76.03
2022-08-26T19:33:19.858Z,75.18
2022-08-26T19:35:46.260Z,75.49
2022-08-26T19:38:13.739Z,75.65
2022-08-26T19:40:40.809Z,75.17
2022-08-26T19:43:07.840Z,76.07
2022-08-26T19:45:35.018Z,75.73
2022-08-26T19:48:02.511Z,76.67
2022-08-26T19:50:31.938Z,76.61
2022-08-26T19:52:59.112Z,76.79
2022-08-26T19:55:25.671Z,76.89
2022-08-26T19:57:52.303Z,76.52
2022-08-26T20:00:22.072Z,76.28
2022-08-26T20:02:48.455Z,76.47
2022-08-26T20:05:15.878Z,76.73
2022-08-26T20:07:42.611Z,77.12
2022-08-26T20:10:11.798Z,77.05
2022-08-26T20:12:38.853Z,76.54
2022-08-26T20:15:05.823Z,76.61
2022-08-26T20:17:32.846Z,76.74
2022-08-26T20:19:59.185Z,76.78
2022-08-26T20:22:25.525Z,76.62
2022-08-26T20:24:51.879Z,76.77
2022-08-26T20:27:18.227Z,76.44
2022-08-26T20:29:44.550Z,77.00
2022-08-26T20:32:10.916Z,76.56
2022-08-26T20:34:37.472Z,76.62
2022-08-26T20:37:04.405Z,76.21
2022-08-26T20:39:30.757Z,76.63
2022-08-26T20:41:58.541Z,76.67
2022-08-26T20:44:26.181Z,76.58
2022-08-26T20:46:52.687Z,76.32
2022-08-26T20:49:19.040Z,75.91
2022-08-26T20:51:48.550Z,76.21
2022-08-26T20:54:14.885Z,76.05
2022-08-26T20:56:41.239Z,76.03
2022-08-26T20:59:08.099Z,76.45
2022-08-26T21:01:36.517Z,75.89
2022-08-26T21:04:09.485Z,75.90
2022-08-26T21:06:36.429Z,76.16
2022-08-26T21:09:05.238Z,76.06
2022-08-26T21:11:32.043Z,76.27
2022-08-26T21:14:06.739Z,76.11
2022-08-26T21:16:35.298Z,76.00
2022-08-26T21:19:02.450Z,75.95
2022-08-26T21:21:28.890Z,75.44
2022-08-26T21:23:55.571Z,75.87
2022-08-26T21:26:22.603Z,76.21
2022-08-26T21:28:49.442Z,75.71
2022-08-26T21:31:18.490Z,76.07
2022-08-26T21:33:44.865Z,76.17
2022-08-26T21:36:12.695Z,75.64
2022-08-26T21:38:39.978Z,76.15
2022-08-26T21:41:15.194Z,76.17
2022-08-26T21:43:42.657Z,75.91
2022-08-26T21:46:11.841Z,76.72
2022-08-26T21:48:39.543Z,76.70
2022-08-26T21:51:06.563Z,76.79
2022-08-26T21:53:32.945Z,76.87
2022-08-26T21:55:59.399Z,77.21
2022-08-26T21:58:25.782Z,77.32
2022-08-26T22:00:52.282Z,77.76
2022-08-26T22:03:18.667Z,78.33
2022-08-26T22:05:47.385Z,78.67
2022-08-26T22:08:13.730Z,78.50
2022-08-26T22:10:41.498Z,78.76
2022-08-26T22:13:11.190Z,78.59
2022-08-26T22:15:37.583Z,78.04
2022-08-26T22:18:05.058Z,78.32
2022-08-26T22:20:31.537Z,78.11
2022-08-26T22:22:58.602Z,78.26
2022-08-26T22:25:25.505Z,78.61
2022-08-26T22:27:51.857Z,78.28
2022-08-26T22:30:18.421Z,78.52
2022-08-26T22:32:45.050Z,78.47
2022-08-26T22:35:29.046Z,78.49
2022-08-26T22:37:57.197Z,78.47
2022-08-26T22:40:23.729Z,78.49
2022-08-26T22:42:57.926Z,79.13
2022-08-26T22:45:26.539Z,79.18
2022-08-26T22:47:52.932Z,79.26
2022-08-26T22:50:19.362Z,79.05
2022-08-26T22:52:45.710Z,79.50
2022-08-26T22:55:12.048Z,79.15
2022-08-26T22:57:38.389Z,79.51
2022-08-26T23:00:05.354Z,79.22
2022-08-26T23:02:31.974Z,79.79
2022-08-26T23:04:58.312Z,79.74
2022-08-26T23:07:24.675Z,79.73
2022-08-26T23:09:51.009Z,79.95
2022-08-26T23:12:17.365Z,79.51
2022-08-26T23:14:43.696Z,80.33
2022-08-26T23:17:11.819Z,80.29
2022-08-26T23:19:38.146Z,80.27
2022-08-26T23:22:04.630Z,79.95
2022-08-26T23:24:31.599Z,80.19
2022-08-26T23:26:58.143Z,79.83
2022-08-26T23:29:24.504Z,79.82
2022-08-26T23:31:50.926Z,79.91
2022-08-26T23:34:17.316Z,80.14
2022-08-26T23:36:44.610Z,79.99
2022-08-26T23:39:12.814Z,80.00
2022-08-26T23:41:39.254Z,80.14
2022-08-26T23:44:05.922Z,80.58
2022-08-26T23:46:34.421Z,80.81
2022-08-26T23:49:01.126Z,81.08
2022-08-26T23:51:27.459Z,81.26
2022-08-26T23:53:53.841Z,81.24
2022-08-26T23:56:20.249Z,81.19
2022-08-26T23:58:47.078Z,81.18
